Time;durP1;ratioP1;P1;durP2;ratioP2;P2;SDS_P1;SDS_P2;PMS_P1;PMS_P2;Temp;Humidity;BMP_temperature;BMP_pressure;BME280_temperature;BME280_humidity;BME280_pressure;Samples;Min_cycle;Max_cycle;Signal;HPM_P1;HPM_P2
2022/03/31 00:00:16;;;;;;;;;5.67;5.33;;;;;21.74;40.60;99961.69;110077;1268;18673;-50
2022/03/31 00:03:01;;;;;;;;;8.50;5.00;;;;;21.74;40.64;99966.17;110030;1268;18473;-50
2022/03/31 00:05:28;;;;;;;;;4.33;4.33;;;;;21.73;40.56;99965.72;110078;1267;18670;-51
2022/03/31 00:07:56;;;;;;;;;5.00;5.00;;;;;21.74;40.58;99966.40;109957;1268;18703;-52
2022/03/31 00:10:24;;;;;;;;;5.00;5.00;;;;;21.73;40.39;99966.73;110051;1267;18284;-48
2022/03/31 00:12:51;;;;;;;;;6.00;5.67;;;;;21.73;40.58;99962.53;110092;1267;18118;-50
2022/03/31 00:15:18;;;;;;;;;5.00;5.00;;;;;21.73;40.58;99965.39;110123;1267;22047;-50
2022/03/31 00:17:46;;;;;;;;;9.00;8.00;;;;;21.72;40.49;99963.23;110076;1267;18424;-51
2022/03/31 00:20:13;;;;;;;;;6.00;5.67;;;;;21.73;40.46;99963.96;110076;1268;21975;-51
2022/03/31 00:22:40;;;;;;;;;5.00;5.00;;;;;21.73;40.42;99961.10;110074;1268;18905;-50
2022/03/31 00:25:08;;;;;;;;;5.00;4.00;;;;;21.73;40.45;99963.27;110063;1268;18468;-50
2022/03/31 00:27:37;;;;;;;;;6.67;6.33;;;;;21.72;40.44;99957.87;110098;1268;19668;-50
2022/03/31 00:30:05;;;;;;;;;7.00;6.00;;;;;21.74;40.34;99964.25;110072;1267;18692;-50
2022/03/31 00:32:32;;;;;;;;;5.67;5.67;;;;;21.72;40.34;99963.92;110054;1267;18842;-50
2022/03/31 00:34:59;;;;;;;;;6.67;5.00;;;;;21.72;40.35;99961.52;110066;1268;18080;-50
2022/03/31 00:37:27;;;;;;;;;5.00;5.00;;;;;21.72;40.44;99959.21;110234;1264;22112;-50
2022/03/31 00:39:54;;;;;;;;;4.00;4.00;;;;;21.71;40.17;99958.45;110267;1264;18413;-50
2022/03/31 00:42:22;;;;;;;;;4.00;4.00;;;;;21.72;40.13;99955.77;110313;1264;17927;-53
2022/03/31 00:44:49;;;;;;;;;6.00;5.00;;;;;21.72;40.20;99953.77;110258;1262;18851;-50
2022/03/31 00:47:17;;;;;;;;;5.33;4.33;;;;;21.72;40.29;99959.17;110248;1264;22218;-50
2022/03/31 00:49:44;;;;;;;;;4.67;4.00;;;;;21.71;39.93;99957.15;110263;1263;18280;-49
2022/03/31 00:52:12;;;;;;;;;8.67;6.00;;;;;21.70;39.98;99954.95;110243;1265;20060;-50
2022/03/31 00:54:39;;;;;;;;;6.00;5.00;;;;;21.71;40.27;99952.23;110281;1264;18556;-51
2022/03/31 00:57:06;;;;;;;;;5.00;5.00;;;;;21.69;40.14;99943.71;110257;1264;20981;-49
2022/03/31 00:59:33;;;;;;;;;6.00;5.67;;;;;21.70;40.08;99945.06;110258;1264;18989;-50
2022/03/31 01:02:00;;;;;;;;;5.00;5.00;;;;;21.70;39.96;99943.85;110273;1265;18320;-49
2022/03/31 01:04:28;;;;;;;;;5.50;5.00;;;;;21.70;39.97;99945.52;110243;1264;20542;-50
2022/03/31 01:06:56;;;;;;;;;6.00;5.33;;;;;21.70;39.93;99946.42;110259;1264;18725;-49
2022/03/31 01:09:23;;;;;;;;;5.33;4.33;;;;;21.69;39.96;99949.83;110320;1264;18324;-52
2022/03/31 01:11:50;;;;;;;;;5.00;5.00;;;;;21.68;39.88;99946.52;110262;1264;18117;-52
2022/03/31 01:14:17;;;;;;;;;5.00;5.00;;;;;21.67;39.77;99951.13;110200;1265;18700;-50
2022/03/31 01:16:44;;;;;;;;;6.00;5.00;;;;;21.67;39.72;99949.16;110177;1264;18361;-56
2022/03/31 01:19:12;;;;;;;;;5.00;5.00;;;;;21.65;39.67;99948.65;110269;1264;18641;-49
2022/03/31 01:21:40;;;;;;;;;5.00;3.67;;;;;21.65;39.67;99948.68;110301;1264;18841;-50
2022/03/31 01:24:07;;;;;;;;;4.50;4.50;;;;;21.64;39.92;99945.16;110285;1262;18458;-49
2022/03/31 01:26:35;;;;;;;;;7.00;5.00;;;;;21.63;39.53;99946.58;110264;1264;22161;-50
2022/03/31 01:29:02;;;;;;;;;5.00;4.00;;;;;21.63;39.89;99940.23;110135;1264;18580;-49
2022/03/31 01:31:30;;;;;;;;;5.00;5.00;;;;;21.62;39.89;99942.17;110162;1264;18438;-49
2022/03/31 01:33:57;;;;;;;;;4.00;4.00;;;;;21.63;39.77;99938.17;110248;1264;18122;-49
2022/03/31 01:36:25;;;;;;;;;4.00;4.00;;;;;21.64;39.65;99940.16;110275;1264;18849;-49
2022/03/31 01:38:53;;;;;;;;;4.00;4.00;;;;;21.64;39.50;99936.88;110269;1264;18395;-49
2022/03/31 01:41:20;;;;;;;;;5.33;5.00;;;;;21.63;39.73;99929.80;110247;1264;18448;-49
2022/03/31 01:43:47;;;;;;;;;6.00;5.00;;;;;21.64;39.55;99933.60;110268;1265;18804;-51
2022/03/31 01:46:14;;;;;;;;;5.00;4.00;;;;;21.64;39.38;99930.48;110287;1264;18984;-50
2022/03/31 01:48:42;;;;;;;;;4.00;4.00;;;;;21.64;39.59;99927.73;110324;1264;18946;-49
2022/03/31 01:51:09;;;;;;;;;4.50;4.50;;;;;21.63;39.64;99926.39;110254;1264;19370;-49
2022/03/31 01:53:36;;;;;;;;;4.00;4.00;;;;;21.64;39.61;99926.30;110268;1265;18323;-50
2022/03/31 01:56:03;;;;;;;;;5.00;4.33;;;;;21.63;39.53;99924.21;110223;1264;18009;-52
2022/03/31 01:58:30;;;;;;;;;5.00;5.00;;;;;21.63;39.45;99924.79;110186;1265;21810;-51
2022/03/31 02:00:58;;;;;;;;;4.67;4.00;;;;;21.63;39.62;99921.19;110264;1265;18481;-54
2022/03/31 02:03:25;;;;;;;;;5.00;5.00;;;;;21.63;39.56;99920.81;110303;1262;18197;-51
2022/03/31 02:05:53;;;;;;;;;4.00;4.00;;;;;21.63;39.35;99926.73;110282;1264;19051;-50
2022/03/31 02:08:20;;;;;;;;;5.00;5.00;;;;;21.63;39.41;99925.17;110240;1265;19560;-49
2022/03/31 02:10:48;;;;;;;;;5.00;4.00;;;;;21.63;39.29;99928.41;110250;1264;21369;-51
2022/03/31 02:13:15;;;;;;;;;4.00;4.00;;;;;21.63;39.36;99930.63;110286;1264;18844;-49
2022/03/31 02:15:43;;;;;;;;;5.00;5.00;;;;;21.62;39.13;99932.68;110296;1264;19639;-49
2022/03/31 02:18:10;;;;;;;;;4.00;4.00;;;;;21.62;39.19;99927.82;110297;1264;18266;-50
2022/03/31 02:20:39;;;;;;;;;4.33;4.00;;;;;21.62;39.44;99929.37;110235;1264;18719;-52
2022/03/31 02:23:06;;;;;;;;;5.00;5.00;;;;;21.61;39.56;99926.05;110270;1264;18300;-50
2022/03/31 02:25:34;;;;;;;;;4.50;3.00;;;;;21.62;39.47;99924.84;110239;1264;21593;-49
2022/03/31 02:28:02;;;;;;;;;4.67;4.00;;;;;21.63;39.48;99928.20;110250;1265;21275;-49
2022/03/31 02:30:29;;;;;;;;;4.00;4.00;;;;;21.59;39.29;99937.41;110320;1264;18412;-50
2022/03/31 02:32:58;;;;;;;;;5.00;4.33;;;;;21.59;39.38;99934.02;110253;1264;18156;-50
2022/03/31 02:35:25;;;;;;;;;4.00;2.00;;;;;21.59;39.37;99935.83;110276;1264;27015;-49
2022/03/31 02:37:53;;;;;;;;;4.00;4.00;;;;;21.59;39.27;99937.80;110293;1263;18395;-51
2022/03/31 02:40:20;;;;;;;;;4.00;4.00;;;;;21.59;39.06;99936.29;110297;1262;19856;-49
2022/03/31 02:42:47;;;;;;;;;4.00;4.00;;;;;21.59;39.08;99935.36;110313;1265;18660;-49
2022/03/31 02:45:14;;;;;;;;;5.00;4.33;;;;;21.58;39.18;99933.96;110261;1264;18454;-49
2022/03/31 02:47:44;;;;;;;;;5.00;4.00;;;;;21.59;39.00;99936.16;110258;1264;18091;-49
2022/03/31 02:50:12;;;;;;;;;4.00;4.00;;;;;21.59;39.12;99931.64;110274;1264;22116;-49
2022/03/31 02:55:28;;;;;;;;;5.00;4.00;;;;;21.59;39.01;99938.39;110269;1264;18031;-50
2022/03/31 02:57:55;;;;;;;;;2.00;2.00;;;;;21.59;38.89;99936.30;110284;1264;18752;-50
2022/03/31 03:00:22;;;;;;;;;4.50;4.50;;;;;21.60;39.06;99936.54;110307;1264;19217;-52
2022/03/31 03:02:49;;;;;;;;;4.00;4.00;;;;;21.59;38.94;99934.65;110262;1264;18730;-52
2022/03/31 03:05:17;;;;;;;;;4.00;4.00;;;;;21.60;38.94;99934.06;110347;1264;18865;-51
2022/03/31 03:07:44;;;;;;;;;5.00;4.33;;;;;21.58;38.75;99931.36;110268;1264;18300;-52
2022/03/31 03:10:13;;;;;;;;;4.00;4.00;;;;;21.58;38.69;99929.56;110267;1264;21345;-52
2022/03/31 03:12:41;;;;;;;;;5.00;5.00;;;;;21.57;38.98;99930.27;110317;1264;18688;-52
2022/03/31 03:15:08;;;;;;;;;4.00;4.00;;;;;21.58;38.85;99933.96;110249;1264;18362;-50
2022/03/31 03:17:35;;;;;;;;;4.00;4.00;;;;;21.58;38.74;99930.14;110287;1264;21747;-51
2022/03/31 03:20:03;;;;;;;;;5.00;5.00;;;;;21.57;38.62;99931.27;110274;1264;18856;-50
2022/03/31 03:22:31;;;;;;;;;4.00;4.00;;;;;21.56;38.88;99927.99;110271;1265;18283;-51
2022/03/31 03:24:59;;;;;;;;;4.00;4.00;;;;;21.58;38.87;99928.47;110271;1264;18193;-51
2022/03/31 03:27:26;;;;;;;;;4.00;4.00;;;;;21.57;38.69;99928.21;110240;1265;18696;-49
2022/03/31 03:29:54;;;;;;;;;4.67;3.33;;;;;21.56;38.65;99930.67;110179;1265;20044;-50
2022/03/31 03:32:22;;;;;;;;;4.00;4.00;;;;;21.56;38.73;99929.76;110287;1264;18633;-50
2022/03/31 03:34:49;;;;;;;;;4.67;4.67;;;;;21.56;38.56;99926.02;110312;1264;18832;-49
2022/03/31 03:37:17;;;;;;;;;4.00;4.00;;;;;21.57;38.74;99929.01;110271;1264;19014;-51
2022/03/31 03:39:45;;;;;;;;;2.00;2.00;;;;;21.56;38.55;99933.82;110325;1265;17981;-49
2022/03/31 03:42:12;;;;;;;;;4.50;4.00;;;;;21.56;38.51;99933.66;110244;1264;21876;-50
2022/03/31 03:44:40;;;;;;;;;2.00;2.00;;;;;21.56;38.62;99935.45;110153;1264;18465;-54
2022/03/31 03:47:07;;;;;;;;;4.00;4.00;;;;;21.56;38.52;99933.87;110251;1265;18879;-50
2022/03/31 03:49:34;;;;;;;;;5.00;4.00;;;;;21.56;38.65;99934.91;110294;1264;19029;-51
2022/03/31 03:52:01;;;;;;;;;5.50;4.50;;;;;21.55;38.50;99935.41;110203;1264;22397;-47
2022/03/31 03:54:28;;;;;;;;;4.00;4.00;;;;;21.55;38.49;99939.11;110296;1264;18026;-51
2022/03/31 03:56:56;;;;;;;;;4.00;4.00;;;;;21.54;38.47;99941.51;110140;1264;20150;-50
2022/03/31 03:59:24;;;;;;;;;4.00;4.00;;;;;21.55;38.46;99942.17;110152;1262;18387;-50
2022/03/31 04:01:51;;;;;;;;;4.00;4.00;;;;;21.55;38.55;99936.55;110220;1264;24980;-51
2022/03/31 04:04:19;;;;;;;;;5.00;4.00;;;;;21.55;38.55;99938.65;110265;1264;22231;-49
2022/03/31 04:06:46;;;;;;;;;4.00;4.00;;;;;21.56;38.24;99941.13;110304;1264;18546;-51
2022/03/31 04:09:13;;;;;;;;;2.00;2.00;;;;;21.55;38.29;99937.18;110254;1264;19077;-55
2022/03/31 04:11:40;;;;;;;;;4.00;4.00;;;;;21.56;38.32;99943.23;110238;1264;18958;-50
2022/03/31 04:14:07;;;;;;;;;4.00;4.00;;;;;21.55;38.22;99945.40;110261;1264;18377;-48
2022/03/31 04:16:35;;;;;;;;;4.00;4.00;;;;;21.56;38.25;99945.99;110260;1265;20211;-53
2022/03/31 04:19:02;;;;;;;;;4.00;4.00;;;;;21.55;38.31;99945.40;110297;1264;18651;-52
2022/03/31 04:21:29;;;;;;;;;4.00;4.00;;;;;21.55;38.43;99951.91;110263;1264;19448;-50
2022/03/31 04:23:56;;;;;;;;;5.00;4.00;;;;;21.55;38.31;99945.44;110237;1264;18049;-48
2022/03/31 04:26:23;;;;;;;;;2.67;2.67;;;;;21.54;38.26;99943.14;110232;1264;18889;-51
2022/03/31 04:28:51;;;;;;;;;2.00;2.00;;;;;21.54;38.48;99941.71;110251;1264;21701;-47
2022/03/31 04:31:18;;;;;;;;;5.00;3.33;;;;;21.53;38.36;99940.59;110296;1265;18205;-51
2022/03/31 04:33:45;;;;;;;;;4.33;3.33;;;;;21.53;38.42;99939.28;110292;1265;18814;-52
2022/03/31 04:36:12;;;;;;;;;4.00;4.00;;;;;21.53;38.26;99948.77;110253;1264;19313;-52
2022/03/31 04:38:40;;;;;;;;;4.00;4.00;;;;;21.53;38.28;99953.08;110252;1264;19470;-53
2022/03/31 04:41:07;;;;;;;;;5.00;4.67;;;;;21.54;38.43;99952.28;110247;1264;18854;-52
2022/03/31 04:43:34;;;;;;;;;4.00;4.00;;;;;21.55;38.42;99956.81;110276;1264;18431;-49
2022/03/31 04:46:01;;;;;;;;;4.00;3.33;;;;;21.54;38.34;99957.58;110266;1264;18236;-52
2022/03/31 04:48:30;;;;;;;;;3.33;3.33;;;;;21.54;38.31;99957.52;110328;1264;18974;-52
2022/03/31 04:50:57;;;;;;;;;4.67;3.33;;;;;21.53;38.26;99955.67;110223;1264;18369;-49
2022/03/31 04:53:24;;;;;;;;;3.33;3.33;;;;;21.53;38.28;99961.84;110253;1264;19507;-49
2022/03/31 04:55:52;;;;;;;;;4.00;4.00;;;;;21.53;38.24;99968.05;110252;1264;18788;-53
2022/03/31 04:58:19;;;;;;;;;4.00;4.00;;;;;21.53;38.25;99968.39;110166;1264;23164;-49
2022/03/31 05:00:46;;;;;;;;;4.00;4.00;;;;;21.52;38.33;99966.73;110191;1264;17969;-51
2022/03/31 05:03:13;;;;;;;;;4.00;4.00;;;;;21.53;38.19;99972.08;110247;1264;18850;-50
2022/03/31 05:05:40;;;;;;;;;4.00;4.00;;;;;21.53;38.07;99969.30;110244;1264;18249;-48
2022/03/31 05:08:08;;;;;;;;;4.00;2.00;;;;;21.52;38.05;99969.55;110243;1264;18289;-54
2022/03/31 05:10:35;;;;;;;;;4.67;4.00;;;;;21.53;38.21;99970.90;110260;1263;18688;-51
2022/03/31 05:13:02;;;;;;;;;5.00;5.00;;;;;21.54;38.04;99975.48;110269;1265;19184;-51
2022/03/31 05:15:29;;;;;;;;;4.67;4.67;;;;;21.53;38.03;99977.49;110325;1264;18075;-54
2022/03/31 05:17:57;;;;;;;;;6.00;6.00;;;;;21.54;38.13;99974.94;110298;1262;19123;-52
2022/03/31 05:20:25;;;;;;;;;4.33;3.33;;;;;21.54;38.19;99973.77;110257;1264;18212;-52
2022/03/31 05:22:52;;;;;;;;;2.67;2.67;;;;;21.54;38.18;99975.23;110239;1264;18120;-51
2022/03/31 05:25:19;;;;;;;;;2.00;2.00;;;;;21.54;38.11;99979.34;110280;1264;18813;-55
2022/03/31 05:27:47;;;;;;;;;4.67;2.00;;;;;21.53;38.05;99980.34;110254;1264;18461;-52
2022/03/31 05:30:14;;;;;;;;;5.33;4.00;;;;;21.55;38.02;99982.15;110181;1264;18385;-52
2022/03/31 05:32:41;;;;;;;;;4.00;4.00;;;;;21.58;37.94;99985.61;110267;1264;18793;-51
2022/03/31 05:35:08;;;;;;;;;4.00;4.00;;;;;21.59;38.12;99984.27;110237;1264;18325;-52
2022/03/31 05:37:36;;;;;;;;;2.00;2.00;;;;;21.61;38.07;99984.95;110205;1264;18449;-51
2022/03/31 05:40:04;;;;;;;;;4.00;4.00;;;;;21.62;37.80;99985.63;110215;1264;19774;-53
2022/03/31 05:42:32;;;;;;;;;2.00;2.00;;;;;21.62;38.19;99983.77;110249;1264;18283;-54
2022/03/31 05:44:59;;;;;;;;;4.00;4.00;;;;;21.63;37.95;99983.23;110247;1264;18193;-53
2022/03/31 05:47:26;;;;;;;;;4.00;4.00;;;;;21.65;37.90;99985.23;110270;1265;19006;-51
2022/03/31 05:49:54;;;;;;;;;4.00;4.00;;;;;21.66;37.87;99982.02;110239;1263;22157;-54
2022/03/31 05:52:21;;;;;;;;;4.00;4.00;;;;;21.71;37.84;99985.30;110152;1264;27463;-54
2022/03/31 05:54:48;;;;;;;;;4.00;4.00;;;;;21.78;38.26;99983.70;110208;1264;18785;-53
2022/03/31 05:57:15;;;;;;;;;4.50;4.00;;;;;21.87;39.69;99977.83;110236;1262;33166;-52
2022/03/31 05:59:43;;;;;;;;;4.00;4.00;;;;;21.94;39.87;99983.95;110179;1264;18043;-54
2022/03/31 06:02:11;;;;;;;;;5.00;5.00;;;;;21.96;39.67;99980.19;110248;1264;18678;-55
2022/03/31 06:04:38;;;;;;;;;3.00;3.00;;;;;21.99;39.62;99984.82;110285;1264;18477;-55
2022/03/31 06:07:05;;;;;;;;;3.00;2.67;;;;;22.08;39.81;99984.45;110219;1264;19620;-50
2022/03/31 06:09:32;;;;;;;;;5.00;3.00;;;;;22.12;39.86;99987.67;110268;1264;18721;-52
2022/03/31 06:12:00;;;;;;;;;3.00;3.00;;;;;22.15;40.03;99989.02;110177;1264;19526;-54
2022/03/31 06:14:27;;;;;;;;;3.67;3.00;;;;;22.15;40.16;99986.45;110130;1264;21414;-57
2022/03/31 06:16:54;;;;;;;;;3.33;3.33;;;;;22.12;40.15;99992.84;110031;1265;176993;-52
2022/03/31 06:19:22;;;;;;;;;3.00;3.00;;;;;22.03;39.99;99994.91;110236;1264;19163;-50
2022/03/31 06:21:49;;;;;;;;;6.67;6.00;;;;;22.03;40.13;99997.67;110272;1264;18119;-54
2022/03/31 06:24:17;;;;;;;;;5.00;5.00;;;;;22.11;40.33;100001.69;110227;1264;18686;-53
2022/03/31 06:26:44;;;;;;;;;3.00;3.00;;;;;22.13;40.33;100007.36;110264;1264;18604;-50
2022/03/31 06:29:13;;;;;;;;;5.00;5.00;;;;;22.14;40.47;100015.64;110207;1264;19692;-53
2022/03/31 06:31:40;;;;;;;;;5.00;4.50;;;;;22.17;40.25;100012.80;110175;1264;23473;-50
2022/03/31 06:34:08;;;;;;;;;5.33;3.67;;;;;22.16;39.90;100016.41;110132;1265;18439;-51
2022/03/31 06:36:35;;;;;;;;;5.00;3.33;;;;;22.14;40.07;100019.02;110264;1263;19837;-53
2022/03/31 06:39:02;;;;;;;;;3.00;3.00;;;;;22.12;40.15;100024.29;110216;1264;19130;-53
2022/03/31 06:41:30;;;;;;;;;5.00;5.00;;;;;22.09;39.82;100023.16;110242;1265;18365;-51
2022/03/31 06:43:57;;;;;;;;;5.00;5.00;;;;;22.09;39.69;100027.16;110248;1264;19984;-51
2022/03/31 06:46:25;;;;;;;;;5.00;5.00;;;;;22.05;39.50;100030.27;110261;1264;18705;-53
2022/03/31 06:48:52;;;;;;;;;5.67;5.00;;;;;21.95;38.91;100029.50;110276;1264;18444;-49
2022/03/31 06:51:19;;;;;;;;;6.00;5.50;;;;;21.91;38.29;100028.73;110243;1264;20373;-48
2022/03/31 06:53:46;;;;;;;;;5.33;5.33;;;;;21.94;38.22;100032.17;110241;1265;21697;-49
2022/03/31 06:56:16;;;;;;;;;7.33;6.00;;;;;21.97;38.29;100030.93;110249;1265;19301;-50
2022/03/31 06:58:44;;;;;;;;;7.00;6.33;;;;;22.03;38.11;100030.52;110252;1264;18097;-49
2022/03/31 07:01:11;;;;;;;;;3.00;3.00;;;;;22.08;38.02;100035.79;110235;1264;18806;-49
2022/03/31 07:03:38;;;;;;;;;3.33;3.33;;;;;22.11;37.85;100032.27;110245;1264;18282;-51
2022/03/31 07:06:06;;;;;;;;;3.50;3.00;;;;;22.14;37.96;100037.48;110268;1264;18379;-50
2022/03/31 07:08:34;;;;;;;;;5.33;5.00;;;;;22.19;38.00;100035.27;110244;1264;20778;-52
2022/03/31 07:11:02;;;;;;;;;5.00;5.00;;;;;22.26;38.24;100032.52;110211;1263;18396;-50
2022/03/31 07:13:30;;;;;;;;;5.00;5.00;;;;;22.29;38.21;100036.48;110196;1264;18017;-52
2022/03/31 07:15:57;;;;;;;;;6.33;6.33;;;;;22.33;38.16;100036.59;110238;1265;18807;-52
2022/03/31 07:18:24;;;;;;;;;5.00;5.00;;;;;22.32;38.23;100030.59;110254;1264;18368;-52
2022/03/31 07:20:52;;;;;;;;;6.00;6.00;;;;;22.22;37.44;100023.86;110194;1264;18806;-52
2022/03/31 07:23:19;;;;;;;;;9.00;6.00;;;;;22.22;36.69;100027.90;110158;1264;18727;-52
2022/03/31 07:25:47;;;;;;;;;6.00;5.67;;;;;22.27;36.87;100029.23;110210;1265;18413;-53
2022/03/31 07:28:15;;;;;;;;;6.00;5.00;;;;;22.31;36.89;100018.81;110221;1264;18260;-51
2022/03/31 07:30:42;;;;;;;;;6.00;6.00;;;;;22.39;37.01;100019.09;110229;1264;18660;-54
2022/03/31 07:33:09;;;;;;;;;6.00;6.00;;;;;22.43;37.14;100021.05;110148;1265;20261;-50
2022/03/31 07:35:38;;;;;;;;;6.67;5.67;;;;;22.48;37.30;100017.65;110221;1264;18135;-51
2022/03/31 07:38:07;;;;;;;;;5.00;5.00;;;;;22.52;37.28;100012.98;110230;1264;18982;-53
2022/03/31 07:40:36;;;;;;;;;6.00;6.00;;;;;22.47;36.64;100011.81;110266;1264;18451;-52
2022/03/31 07:43:04;;;;;;;;;7.00;6.50;;;;;22.43;36.25;100015.96;110242;1264;17954;-53
2022/03/31 07:45:31;;;;;;;;;6.00;6.00;;;;;22.44;35.46;100014.58;110242;1264;18859;-51
2022/03/31 07:47:58;;;;;;;;;6.33;6.00;;;;;22.46;35.69;100014.45;110216;1265;19272;-52
2022/03/31 07:50:25;;;;;;;;;9.67;6.67;;;;;22.54;35.94;100016.16;110149;1264;18008;-57
2022/03/31 07:52:53;;;;;;;;;9.00;6.00;;;;;22.57;36.02;100015.84;110193;1265;18848;-53
2022/03/31 07:55:20;;;;;;;;;6.00;6.00;;;;;22.57;36.54;100010.03;110207;1264;18441;-51
2022/03/31 07:57:48;;;;;;;;;9.00;6.00;;;;;22.64;36.78;100011.48;110286;1265;22470;-52
2022/03/31 08:00:15;;;;;;;;;6.33;6.00;;;;;22.70;36.79;100007.29;110256;1265;18689;-56
2022/03/31 08:02:42;;;;;;;;;5.00;5.00;;;;;22.73;36.82;100012.17;110245;1262;21409;-51
2022/03/31 08:05:10;;;;;;;;;11.33;10.00;;;;;22.71;35.94;100013.88;110244;1264;20316;-52
2022/03/31 08:07:38;;;;;;;;;14.67;13.33;;;;;22.15;31.06;100013.36;110258;1264;18752;-55
2022/03/31 08:10:05;;;;;;;;;19.00;17.00;;;;;21.61;27.63;100010.25;110244;1264;18770;-51
2022/03/31 08:12:33;;;;;;;;;20.67;14.67;;;;;21.15;25.91;100017.98;110286;1263;18868;-54
2022/03/31 08:15:01;;;;;;;;;16.00;11.67;;;;;21.13;26.39;100016.48;110247;1265;19012;-52
2022/03/31 08:17:28;;;;;;;;;16.00;13.67;;;;;21.35;26.27;100017.53;110120;1264;21536;-54
2022/03/31 08:19:55;;;;;;;;;14.00;13.67;;;;;21.53;26.46;100014.09;110288;1264;18311;-54
2022/03/31 08:22:23;;;;;;;;;15.00;14.00;;;;;21.62;25.54;100009.75;110229;1263;18897;-52
2022/03/31 08:24:51;;;;;;;;;11.33;11.33;;;;;21.61;25.05;100011.05;110146;1263;18704;-55
2022/03/31 08:27:18;;;;;;;;;16.00;14.00;;;;;21.58;25.23;100010.02;110139;1264;18608;-52
2022/03/31 08:29:45;;;;;;;;;17.00;16.00;;;;;21.61;24.81;100006.94;110198;1264;20576;-55
2022/03/31 08:32:15;;;;;;;;;16.00;13.00;;;;;21.60;24.42;100009.99;110238;1262;18929;-54
2022/03/31 08:34:42;;;;;;;;;15.67;14.67;;;;;21.64;24.44;100012.07;110204;1265;18291;-55
2022/03/31 08:37:09;;;;;;;;;12.33;12.00;;;;;21.63;24.33;100007.63;110226;1264;19121;-53
2022/03/31 08:39:37;;;;;;;;;18.00;17.00;;;;;21.53;23.58;100012.17;110267;1264;18712;-51
2022/03/31 08:42:04;;;;;;;;;24.00;23.50;;;;;21.43;23.00;100008.61;110229;1264;19021;-51
2022/03/31 08:44:31;;;;;;;;;27.33;20.67;;;;;21.33;22.60;100006.15;110235;1264;18680;-52
2022/03/31 08:46:58;;;;;;;;;24.00;18.00;;;;;21.26;23.17;100014.99;110238;1265;21639;-51
2022/03/31 08:49:25;;;;;;;;;20.00;18.00;;;;;21.01;23.26;100020.95;110204;1265;18505;-53
2022/03/31 08:51:53;;;;;;;;;21.00;19.33;;;;;20.78;23.76;100017.51;110220;1264;21563;-55
2022/03/31 08:54:20;;;;;;;;;15.00;14.00;;;;;20.96;24.34;100015.04;110175;1262;18865;-51
2022/03/31 08:56:47;;;;;;;;;19.67;16.00;;;;;21.17;24.43;100014.42;110268;1265;18336;-52
2022/03/31 08:59:14;;;;;;;;;17.50;16.50;;;;;21.30;24.05;100023.70;110256;1264;19029;-51
2022/03/31 09:01:42;;;;;;;;;22.33;19.00;;;;;21.41;24.18;100019.98;110222;1265;19035;-50
2022/03/31 09:04:09;;;;;;;;;20.00;17.00;;;;;21.36;23.23;100025.30;110233;1265;22073;-53
2022/03/31 09:06:36;;;;;;;;;16.33;16.00;;;;;21.08;22.80;100023.77;110242;1265;18665;-54
2022/03/31 09:09:04;;;;;;;;;17.00;15.50;;;;;21.01;22.44;100022.64;110200;1264;20567;-52
2022/03/31 09:11:31;;;;;;;;;17.00;17.00;;;;;20.79;21.78;100025.02;110208;1262;18158;-53
2022/03/31 09:13:58;;;;;;;;;20.00;19.67;;;;;20.70;21.96;100029.45;110213;1264;19032;-53
2022/03/31 09:16:25;;;;;;;;;18.67;15.00;;;;;20.70;22.28;100025.39;110081;1265;18753;-52
2022/03/31 09:18:52;;;;;;;;;17.00;16.00;;;;;20.99;23.12;100023.91;110199;1263;18562;-52
2022/03/31 09:21:22;;;;;;;;;19.67;17.67;;;;;20.97;22.81;100020.50;110161;1264;18822;-53
2022/03/31 09:23:50;;;;;;;;;20.00;17.00;;;;;20.81;22.04;100026.75;110078;1262;18802;-53
2022/03/31 09:26:17;;;;;;;;;28.00;23.33;;;;;20.46;22.26;100024.19;110123;1263;18394;-50
2022/03/31 09:28:45;;;;;;;;;23.00;20.50;;;;;20.50;22.00;100014.70;109659;1262;19359;-54
2022/03/31 09:31:12;;;;;;;;;19.00;17.00;;;;;20.48;23.40;100016.23;110151;1265;18848;-55
2022/03/31 09:33:40;;;;;;;;;16.00;15.67;;;;;20.55;24.02;100027.61;110188;1264;18188;-51
2022/03/31 09:36:07;;;;;;;;;18.00;16.33;;;;;20.57;23.83;100027.39;110248;1264;18953;-53
2022/03/31 09:38:35;;;;;;;;;15.33;13.00;;;;;20.54;24.32;100023.45;110270;1264;19511;-54
2022/03/31 09:41:03;;;;;;;;;17.00;16.00;;;;;20.48;23.33;100023.05;110270;1264;18308;-55
2022/03/31 09:43:30;;;;;;;;;13.00;12.00;;;;;20.08;23.10;100022.83;110255;1264;22293;-56
2022/03/31 09:45:57;;;;;;;;;13.33;12.33;;;;;19.35;22.93;100011.22;110265;1264;18916;-54
2022/03/31 09:48:25;;;;;;;;;12.33;12.33;;;;;19.33;22.90;100013.48;110124;1265;22417;-50
2022/03/31 09:50:53;;;;;;;;;14.00;13.00;;;;;19.59;23.15;100009.64;110249;1262;18819;-56
2022/03/31 09:53:20;;;;;;;;;11.00;11.00;;;;;19.55;22.62;100012.39;110269;1264;18786;-53
2022/03/31 09:55:47;;;;;;;;;12.00;12.00;;;;;19.26;22.26;100009.79;110284;1263;22621;-56
2022/03/31 09:58:15;;;;;;;;;12.00;11.00;;;;;19.08;21.94;100000.55;110176;1264;18688;-52
2022/03/31 10:00:42;;;;;;;;;11.00;9.00;;;;;19.01;21.60;99993.95;110253;1264;18812;-52
2022/03/31 10:03:09;;;;;;;;;12.00;12.00;;;;;18.87;21.36;99994.89;110149;1264;22292;-53
2022/03/31 10:05:39;;;;;;;;;12.00;9.00;;;;;18.73;21.19;99987.11;110273;1264;22035;-51
2022/03/31 10:08:07;;;;;;;;;13.33;12.00;;;;;18.58;21.48;99982.41;110244;1264;18823;-54
2022/03/31 10:10:34;;;;;;;;;11.00;9.33;;;;;18.57;21.12;99979.83;110191;1264;18496;-50
2022/03/31 10:13:01;;;;;;;;;8.33;7.67;;;;;19.04;21.74;99970.92;110148;1264;19587;-50
2022/03/31 10:15:30;;;;;;;;;9.00;9.00;;;;;19.78;22.68;99968.09;110171;1264;18769;-53
2022/03/31 10:17:57;;;;;;;;;11.67;9.00;;;;;20.26;23.51;99967.93;110198;1265;18144;-52
2022/03/31 10:20:24;;;;;;;;;12.00;9.00;;;;;20.58;23.66;99961.05;110122;1265;20962;-50
2022/03/31 10:25:36;;;;;;;;;8.33;8.00;;;;;20.94;24.30;99959.91;110226;1264;18320;-53
2022/03/31 10:28:04;;;;;;;;;10.00;9.00;;;;;21.07;24.39;99956.23;110231;1264;18810;-52
2022/03/31 10:30:31;;;;;;;;;9.00;8.00;;;;;21.17;24.74;99954.05;110206;1264;21897;-52
2022/03/31 10:32:58;;;;;;;;;9.67;9.00;;;;;20.97;24.97;99947.57;110192;1265;18035;-56
2022/03/31 10:35:25;;;;;;;;;9.00;8.67;;;;;20.34;23.09;99957.51;110217;1263;21723;-53
2022/03/31 10:37:53;;;;;;;;;9.00;8.67;;;;;19.85;22.78;99952.59;110197;1264;18386;-53
2022/03/31 10:40:20;;;;;;;;;11.00;11.00;;;;;19.81;22.33;99960.89;110236;1264;18105;-54
2022/03/31 10:42:47;;;;;;;;;9.00;9.00;;;;;19.62;21.53;99958.84;110264;1264;19257;-54
2022/03/31 10:45:14;;;;;;;;;12.00;11.00;;;;;19.61;21.32;99970.63;110187;1264;18939;-52
2022/03/31 10:47:42;;;;;;;;;12.00;11.00;;;;;19.48;20.86;99969.38;110201;1265;21084;-53
2022/03/31 10:50:09;;;;;;;;;9.00;8.00;;;;;19.70;21.40;99970.15;110264;1264;18766;-51
2022/03/31 10:52:36;;;;;;;;;11.00;11.00;;;;;19.64;21.60;99971.04;110223;1264;18829;-53
2022/03/31 10:55:04;;;;;;;;;8.00;6.00;;;;;19.50;21.20;99977.39;110235;1265;18243;-53
2022/03/31 10:57:31;;;;;;;;;10.00;7.67;;;;;19.28;21.20;99978.55;110245;1265;18800;-52
2022/03/31 10:59:59;;;;;;;;;9.00;8.00;;;;;19.27;20.63;99974.36;110241;1264;18357;-51
2022/03/31 11:02:28;;;;;;;;;9.00;8.00;;;;;19.27;20.73;99974.32;110108;1264;18322;-51
2022/03/31 11:04:55;;;;;;;;;8.00;8.00;;;;;19.72;21.29;99975.79;110270;1264;18670;-53
2022/03/31 11:07:24;;;;;;;;;8.00;8.00;;;;;20.12;21.81;99965.59;110027;1264;18291;-50
2022/03/31 11:09:51;;;;;;;;;8.67;8.33;;;;;20.41;21.98;99955.00;110046;1264;18020;-52
2022/03/31 11:12:19;;;;;;;;;8.00;8.00;;;;;20.63;22.13;99955.28;110230;1265;18740;-52
2022/03/31 11:14:46;;;;;;;;;8.00;8.00;;;;;20.77;22.46;99962.23;110164;1264;18405;-54
2022/03/31 11:17:13;;;;;;;;;9.00;8.00;;;;;20.88;22.33;99963.80;110205;1265;20642;-52
2022/03/31 11:19:40;;;;;;;;;10.33;8.00;;;;;20.95;22.49;99964.66;110233;1265;21749;-53
2022/03/31 11:22:07;;;;;;;;;9.00;9.00;;;;;20.99;23.49;99967.45;110195;1264;18319;-57
2022/03/31 11:24:35;;;;;;;;;8.00;8.00;;;;;21.03;23.29;99964.30;110237;1264;22184;-50